Kovar, Texas
Current Conditions -  °F | °C
As of 6:35 PM on Friday 21 Nov 2014 (Local Time) from K3T5 Reporting Station
Scattered Clouds Scattered Clouds  
Wind Chill: 70°   Ceiling: Unl
Heat Index: 70°   Visibility: 10mi
Dew Point: 67°   Wind: 8mph
Humidity: 91%   Direction: 130°SE
Pressure: 30.04"   Gusts: NA
Location:  29.7626°N, 97.1228°W
Report Text: K3T5 220035Z AUTO 13007KT 10SM SCT017 SCT030 SCT035 21/20 A3004 RMK AO2 T02110196
Loading
Personal Weather Stations






























Interactive Weather Map New forecast layout! Learn more

10-Day Weather Forecast

Advertisements
Track Severe Weather on mobile